sensor_id;sensor_type;location;lat;lon;timestamp;pressure;altitude;pressure_sealevel;temperature;humidity
11124;BME280;5616;42.692;23.312;2023-02-28T00:00:49;95572.97;;;8.57;100.00
11124;BME280;5616;42.692;23.312;2023-02-28T00:03:17;95570.72;;;8.63;100.00
11124;BME280;5616;42.692;23.312;2023-02-28T00:05:44;95585.34;;;8.62;99.20
11124;BME280;5616;42.692;23.312;2023-02-28T00:08:10;95589.06;;;8.68;99.43
11124;BME280;5616;42.692;23.312;2023-02-28T00:10:38;95587.81;;;8.72;98.91
11124;BME280;5616;42.692;23.312;2023-02-28T00:13:06;95586.34;;;8.69;97.50
11124;BME280;5616;42.692;23.312;2023-02-28T00:15:34;95575.72;;;8.72;97.99
11124;BME280;5616;42.692;23.312;2023-02-28T00:18:02;95591.66;;;8.76;97.80
11124;BME280;5616;42.692;23.312;2023-02-28T00:20:29;95602.41;;;8.63;98.58
11124;BME280;5616;42.692;23.312;2023-02-28T00:22:56;95599.84;;;8.63;97.88
11124;BME280;5616;42.692;23.312;2023-02-28T00:25:24;95617.88;;;8.29;98.40
11124;BME280;5616;42.692;23.312;2023-02-28T00:27:52;95608.88;;;8.33;99.51
11124;BME280;5616;42.692;23.312;2023-02-28T00:30:22;95594.09;;;8.35;98.78
11124;BME280;5616;42.692;23.312;2023-02-28T00:32:49;95605.09;;;8.45;98.92
11124;BME280;5616;42.692;23.312;2023-02-28T00:35:17;95599.47;;;8.50;98.89
11124;BME280;5616;42.692;23.312;2023-02-28T00:37:44;95594.63;;;8.47;98.67
11124;BME280;5616;42.692;23.312;2023-02-28T00:40:11;95604.16;;;8.54;98.39
11124;BME280;5616;42.692;23.312;2023-02-28T00:42:38;95611.06;;;8.54;98.35
11124;BME280;5616;42.692;23.312;2023-02-28T00:45:07;95597.41;;;8.61;98.96
11124;BME280;5616;42.692;23.312;2023-02-28T00:47:38;95606.59;;;8.64;98.61
11124;BME280;5616;42.692;23.312;2023-02-28T00:50:06;95597.75;;;8.58;98.15
11124;BME280;5616;42.692;23.312;2023-02-28T00:52:37;95593.56;;;8.57;99.82
11124;BME280;5616;42.692;23.312;2023-02-28T00:55:04;95591.22;;;8.38;99.44
11124;BME280;5616;42.692;23.312;2023-02-28T00:57:32;95593.47;;;8.41;99.21
11124;BME280;5616;42.692;23.312;2023-02-28T00:59:59;95595.91;;;8.17;100.00
11124;BME280;5616;42.692;23.312;2023-02-28T01:02:26;95580.00;;;8.14;100.00
11124;BME280;5616;42.692;23.312;2023-02-28T01:04:55;95594.50;;;8.23;100.00
11124;BME280;5616;42.692;23.312;2023-02-28T01:07:22;95604.59;;;8.16;100.00
11124;BME280;5616;42.692;23.312;2023-02-28T01:09:49;95595.25;;;8.15;99.91
11124;BME280;5616;42.692;23.312;2023-02-28T01:12:16;95595.22;;;8.07;99.41
11124;BME280;5616;42.692;23.312;2023-02-28T01:14:45;95592.81;;;8.06;100.00
11124;BME280;5616;42.692;23.312;2023-02-28T01:17:12;95590.22;;;7.80;99.53
11124;BME280;5616;42.692;23.312;2023-02-28T01:19:39;95588.47;;;7.80;100.00
11124;BME280;5616;42.692;23.312;2023-02-28T01:22:07;95582.97;;;7.75;99.71
11124;BME280;5616;42.692;23.312;2023-02-28T01:24:34;95593.13;;;7.77;100.00
11124;BME280;5616;42.692;23.312;2023-02-28T01:27:00;95584.91;;;7.73;100.00
11124;BME280;5616;42.692;23.312;2023-02-28T01:29:27;95597.03;;;7.63;100.00
11124;BME280;5616;42.692;23.312;2023-02-28T01:31:54;95593.56;;;7.72;100.00
11124;BME280;5616;42.692;23.312;2023-02-28T01:34:22;95600.03;;;7.76;100.00
11124;BME280;5616;42.692;23.312;2023-02-28T01:36:50;95577.38;;;7.80;100.00
11124;BME280;5616;42.692;23.312;2023-02-28T01:39:19;95597.16;;;7.79;100.00
11124;BME280;5616;42.692;23.312;2023-02-28T01:41:47;95590.09;;;7.81;100.00
11124;BME280;5616;42.692;23.312;2023-02-28T01:47:18;95592.16;;;7.78;99.81
11124;BME280;5616;42.692;23.312;2023-02-28T01:49:46;95601.38;;;7.63;99.69
11124;BME280;5616;42.692;23.312;2023-02-28T01:52:15;95589.34;;;7.63;99.60
11124;BME280;5616;42.692;23.312;2023-02-28T01:54:46;95601.38;;;7.63;99.83
11124;BME280;5616;42.692;23.312;2023-02-28T01:57:19;95588.66;;;7.61;100.00
11124;BME280;5616;42.692;23.312;2023-02-28T01:59:52;95600.03;;;7.59;99.61
11124;BME280;5616;42.692;23.312;2023-02-28T02:02:22;95599.19;;;7.50;100.00
11124;BME280;5616;42.692;23.312;2023-02-28T02:04:53;95604.69;;;7.55;100.00
11124;BME280;5616;42.692;23.312;2023-02-28T02:07:21;95595.09;;;7.39;100.00
11124;BME280;5616;42.692;23.312;2023-02-28T02:09:50;95598.38;;;7.50;100.00
11124;BME280;5616;42.692;23.312;2023-02-28T02:12:38;95582.00;;;7.51;100.00
11124;BME280;5616;42.692;23.312;2023-02-28T02:15:12;95594.19;;;7.49;99.79
11124;BME280;5616;42.692;23.312;2023-02-28T02:17:45;95583.78;;;7.50;100.00
11124;BME280;5616;42.692;23.312;2023-02-28T02:20:45;95585.38;;;7.51;100.00
11124;BME280;5616;42.692;23.312;2023-02-28T02:26:57;95579.97;;;7.36;100.00
11124;BME280;5616;42.692;23.312;2023-02-28T02:29:40;95590.25;;;7.36;100.00
11124;BME280;5616;42.692;23.312;2023-02-28T02:32:54;95591.78;;;7.47;100.00
11124;BME280;5616;42.692;23.312;2023-02-28T02:35:31;95591.97;;;7.54;100.00
11124;BME280;5616;42.692;23.312;2023-02-28T02:38:09;95594.53;;;7.54;100.00
11124;BME280;5616;42.692;23.312;2023-02-28T02:40:43;95598.38;;;7.50;100.00
11124;BME280;5616;42.692;23.312;2023-02-28T02:43:17;95601.00;;;7.58;100.00
11124;BME280;5616;42.692;23.312;2023-02-28T02:45:49;95599.44;;;7.65;100.00
11124;BME280;5616;42.692;23.312;2023-02-28T02:48:23;95610.09;;;7.70;100.00
11124;BME280;5616;42.692;23.312;2023-02-28T02:50:55;95609.72;;;7.65;100.00
11124;BME280;5616;42.692;23.312;2023-02-28T02:53:28;95598.22;;;7.69;100.00
11124;BME280;5616;42.692;23.312;2023-02-28T02:56:01;95602.19;;;7.63;100.00
11124;BME280;5616;42.692;23.312;2023-02-28T02:58:33;95598.84;;;7.71;100.00
11124;BME280;5616;42.692;23.312;2023-02-28T03:01:08;95601.94;;;8.00;100.00
11124;BME280;5616;42.692;23.312;2023-02-28T03:03:36;95607.16;;;8.42;100.00
11124;BME280;5616;42.692;23.312;2023-02-28T03:06:05;95613.69;;;8.28;100.00
11124;BME280;5616;42.692;23.312;2023-02-28T03:08:36;95610.91;;;8.22;98.48
11124;BME280;5616;42.692;23.312;2023-02-28T03:11:06;95620.03;;;8.16;98.15
11124;BME280;5616;42.692;23.312;2023-02-28T03:14:03;95627.34;;;8.03;98.93
11124;BME280;5616;42.692;23.312;2023-02-28T03:16:51;95634.03;;;7.96;99.05
11124;BME280;5616;42.692;23.312;2023-02-28T03:19:33;95635.59;;;7.89;100.00
11124;BME280;5616;42.692;23.312;2023-02-28T03:22:14;95637.59;;;7.77;100.00
11124;BME280;5616;42.692;23.312;2023-02-28T03:24:45;95641.91;;;7.69;100.00
11124;BME280;5616;42.692;23.312;2023-02-28T03:27:21;95643.50;;;7.70;100.00
11124;BME280;5616;42.692;23.312;2023-02-28T03:29:53;95639.41;;;7.59;100.00
11124;BME280;5616;42.692;23.312;2023-02-28T03:32:28;95644.56;;;7.42;100.00
11124;BME280;5616;42.692;23.312;2023-02-28T03:35:00;95648.44;;;7.46;100.00
11124;BME280;5616;42.692;23.312;2023-02-28T03:37:32;95650.59;;;7.50;100.00
11124;BME280;5616;42.692;23.312;2023-02-28T03:40:07;95645.56;;;7.49;100.00
11124;BME280;5616;42.692;23.312;2023-02-28T03:42:40;95655.78;;;7.58;100.00
11124;BME280;5616;42.692;23.312;2023-02-28T03:45:12;95651.44;;;7.59;100.00
11124;BME280;5616;42.692;23.312;2023-02-28T03:47:42;95644.59;;;7.67;100.00
11124;BME280;5616;42.692;23.312;2023-02-28T03:50:13;95656.72;;;7.75;100.00
11124;BME280;5616;42.692;23.312;2023-02-28T03:52:47;95658.03;;;7.79;100.00
11124;BME280;5616;42.692;23.312;2023-02-28T03:55:16;95669.44;;;7.76;100.00
11124;BME280;5616;42.692;23.312;2023-02-28T03:57:50;95652.78;;;7.63;100.00
11124;BME280;5616;42.692;23.312;2023-02-28T04:00:27;95654.59;;;7.70;100.00
11124;BME280;5616;42.692;23.312;2023-02-28T04:02:55;95655.53;;;7.69;100.00
11124;BME280;5616;42.692;23.312;2023-02-28T04:05:22;95664.88;;;7.70;100.00
11124;BME280;5616;42.692;23.312;2023-02-28T04:07:50;95669.84;;;7.72;100.00
11124;BME280;5616;42.692;23.312;2023-02-28T04:10:17;95664.06;;;7.70;100.00
11124;BME280;5616;42.692;23.312;2023-02-28T04:12:44;95659.16;;;7.76;100.00
11124;BME280;5616;42.692;23.312;2023-02-28T04:15:11;95663.13;;;7.71;100.00
11124;BME280;5616;42.692;23.312;2023-02-28T04:17:38;95654.81;;;7.77;100.00
11124;BME280;5616;42.692;23.312;2023-02-28T04:20:05;95647.59;;;7.80;100.00
11124;BME280;5616;42.692;23.312;2023-02-28T04:22:35;95642.91;;;7.76;99.55
11124;BME280;5616;42.692;23.312;2023-02-28T04:25:04;95660.31;;;7.64;100.00
11124;BME280;5616;42.692;23.312;2023-02-28T04:27:32;95656.06;;;7.73;100.00
11124;BME280;5616;42.692;23.312;2023-02-28T04:29:58;95653.50;;;7.73;99.38
11124;BME280;5616;42.692;23.312;2023-02-28T04:32:25;95660.91;;;7.76;99.04
11124;BME280;5616;42.692;23.312;2023-02-28T04:34:52;95660.03;;;7.67;98.95
11124;BME280;5616;42.692;23.312;2023-02-28T04:37:19;95665.16;;;7.67;99.43
11124;BME280;5616;42.692;23.312;2023-02-28T04:39:46;95660.38;;;7.72;99.84
11124;BME280;5616;42.692;23.312;2023-02-28T04:42:14;95664.13;;;7.78;100.00
11124;BME280;5616;42.692;23.312;2023-02-28T04:44:41;95664.06;;;7.70;99.30
11124;BME280;5616;42.692;23.312;2023-02-28T04:47:08;95669.13;;;7.79;99.21
11124;BME280;5616;42.692;23.312;2023-02-28T04:49:35;95680.66;;;7.75;98.91
11124;BME280;5616;42.692;23.312;2023-02-28T04:52:02;95683.50;;;7.72;98.89
11124;BME280;5616;42.692;23.312;2023-02-28T04:54:29;95682.28;;;7.76;99.40
11124;BME280;5616;42.692;23.312;2023-02-28T04:56:56;95685.97;;;7.74;99.69
11124;BME280;5616;42.692;23.312;2023-02-28T04:59:24;95684.97;;;7.75;98.20
11124;BME280;5616;42.692;23.312;2023-02-28T05:01:51;95685.88;;;7.83;99.71
11124;BME280;5616;42.692;23.312;2023-02-28T05:04:18;95691.53;;;7.87;97.86
11124;BME280;5616;42.692;23.312;2023-02-28T05:06:44;95678.84;;;7.68;97.59
11124;BME280;5616;42.692;23.312;2023-02-28T05:09:11;95680.81;;;7.74;98.75
11124;BME280;5616;42.692;23.312;2023-02-28T05:11:38;95687.19;;;7.70;99.13
11124;BME280;5616;42.692;23.312;2023-02-28T05:14:09;95695.19;;;7.67;98.66
11124;BME280;5616;42.692;23.312;2023-02-28T05:16:38;95681.41;;;7.68;98.74
11124;BME280;5616;42.692;23.312;2023-02-28T05:19:05;95689.56;;;7.63;98.11
11124;BME280;5616;42.692;23.312;2023-02-28T05:21:33;95681.50;;;7.58;98.63
11124;BME280;5616;42.692;23.312;2023-02-28T05:24:02;95690.06;;;7.49;99.91
11124;BME280;5616;42.692;23.312;2023-02-28T05:26:30;95704.00;;;7.47;99.90
11124;BME280;5616;42.692;23.312;2023-02-28T05:28:57;95704.31;;;7.44;100.00
11124;BME280;5616;42.692;23.312;2023-02-28T05:31:24;95707.53;;;7.46;99.84
11124;BME280;5616;42.692;23.312;2023-02-28T05:33:52;95706.38;;;7.58;99.00
11124;BME280;5616;42.692;23.312;2023-02-28T05:36:19;95713.44;;;7.56;99.62
11124;BME280;5616;42.692;23.312;2023-02-28T05:38:46;95712.66;;;7.46;99.99
11124;BME280;5616;42.692;23.312;2023-02-28T05:41:14;95713.44;;;7.56;100.00
11124;BME280;5616;42.692;23.312;2023-02-28T05:43:41;95707.25;;;7.66;99.35
11124;BME280;5616;42.692;23.312;2023-02-28T05:46:09;95720.59;;;7.70;99.13
11124;BME280;5616;42.692;23.312;2023-02-28T05:48:38;95721.66;;;7.77;99.26
11124;BME280;5616;42.692;23.312;2023-02-28T05:51:07;95721.47;;;7.96;99.36
11124;BME280;5616;42.692;23.312;2023-02-28T05:53:35;95720.88;;;8.02;97.92
11124;BME280;5616;42.692;23.312;2023-02-28T05:56:02;95731.34;;;8.09;98.35
11124;BME280;5616;42.692;23.312;2023-02-28T05:58:29;95730.94;;;8.13;97.76
11124;BME280;5616;42.692;23.312;2023-02-28T06:00:57;95726.44;;;8.15;97.56
11124;BME280;5616;42.692;23.312;2023-02-28T06:03:25;95727.84;;;8.10;97.46
11124;BME280;5616;42.692;23.312;2023-02-28T06:05:53;95718.06;;;8.13;98.67
11124;BME280;5616;42.692;23.312;2023-02-28T06:08:21;95720.34;;;7.98;98.04
11124;BME280;5616;42.692;23.312;2023-02-28T06:10:48;95723.25;;;7.78;97.27
11124;BME280;5616;42.692;23.312;2023-02-28T06:13:15;95719.94;;;7.68;97.63
11124;BME280;5616;42.692;23.312;2023-02-28T06:15:42;95724.94;;;7.52;98.46
11124;BME280;5616;42.692;23.312;2023-02-28T06:18:08;95701.00;;;7.51;98.55
11124;BME280;5616;42.692;23.312;2023-02-28T06:20:35;95723.25;;;7.78;98.65
11124;BME280;5616;42.692;23.312;2023-02-28T06:23:02;95715.97;;;7.91;98.85
11124;BME280;5616;42.692;23.312;2023-02-28T06:25:30;95720.81;;;7.94;98.08
11124;BME280;5616;42.692;23.312;2023-02-28T06:27:57;95724.47;;;8.09;97.33
11124;BME280;5616;42.692;23.312;2023-02-28T06:30:24;95721.53;;;8.22;97.98
11124;BME280;5616;42.692;23.312;2023-02-28T06:32:52;95732.03;;;8.28;97.58
11124;BME280;5616;42.692;23.312;2023-02-28T06:35:19;95740.16;;;8.41;96.98
11124;BME280;5616;42.692;23.312;2023-02-28T06:37:46;95740.50;;;8.46;94.98
11124;BME280;5616;42.692;23.312;2023-02-28T06:40:14;95749.28;;;8.36;94.52
11124;BME280;5616;42.692;23.312;2023-02-28T06:42:42;95747.16;;;8.31;94.69
11124;BME280;5616;42.692;23.312;2023-02-28T06:45:09;95753.28;;;8.13;94.50
11124;BME280;5616;42.692;23.312;2023-02-28T06:47:37;95746.13;;;8.24;95.35
11124;BME280;5616;42.692;23.312;2023-02-28T06:50:06;95736.28;;;8.37;94.62
11124;BME280;5616;42.692;23.312;2023-02-28T06:52:33;95747.38;;;8.20;95.73
11124;BME280;5616;42.692;23.312;2023-02-28T06:55:03;95741.56;;;8.36;95.87
11124;BME280;5616;42.692;23.312;2023-02-28T06:57:31;95745.75;;;8.37;96.13
11124;BME280;5616;42.692;23.312;2023-02-28T07:00:01;95755.63;;;8.24;97.50
11124;BME280;5616;42.692;23.312;2023-02-28T07:02:29;95750.63;;;8.05;96.60
11124;BME280;5616;42.692;23.312;2023-02-28T07:04:57;95749.13;;;8.20;97.88
11124;BME280;5616;42.692;23.312;2023-02-28T07:07:23;95751.22;;;8.34;97.53
11124;BME280;5616;42.692;23.312;2023-02-28T07:09:50;95742.97;;;8.30;96.18
11124;BME280;5616;42.692;23.312;2023-02-28T07:12:17;95746.53;;;8.29;96.15
11124;BME280;5616;42.692;23.312;2023-02-28T07:14:44;95747.91;;;8.24;96.02
11124;BME280;5616;42.692;23.312;2023-02-28T07:17:12;95752.78;;;8.27;97.81
11124;BME280;5616;42.692;23.312;2023-02-28T07:19:39;95739.28;;;8.33;97.30
11124;BME280;5616;42.692;23.312;2023-02-28T07:22:06;95739.50;;;8.39;97.94
11124;BME280;5616;42.692;23.312;2023-02-28T07:24:33;95746.41;;;8.39;96.19
11124;BME280;5616;42.692;23.312;2023-02-28T07:27:00;95750.75;;;8.38;97.64
11124;BME280;5616;42.692;23.312;2023-02-28T07:29:27;95752.38;;;8.39;98.01
11124;BME280;5616;42.692;23.312;2023-02-28T07:31:54;95753.25;;;8.48;96.75
11124;BME280;5616;42.692;23.312;2023-02-28T07:34:23;95756.94;;;8.53;96.53
11124;BME280;5616;42.692;23.312;2023-02-28T07:36:53;95746.88;;;8.60;95.57
11124;BME280;5616;42.692;23.312;2023-02-28T07:39:20;95754.03;;;8.74;96.20
11124;BME280;5616;42.692;23.312;2023-02-28T07:41:47;95746.50;;;8.81;95.00
11124;BME280;5616;42.692;23.312;2023-02-28T07:44:14;95755.84;;;8.82;94.99
11124;BME280;5616;42.692;23.312;2023-02-28T07:46:41;95753.44;;;8.88;94.50
11124;BME280;5616;42.692;23.312;2023-02-28T07:49:07;95758.94;;;8.93;94.17
11124;BME280;5616;42.692;23.312;2023-02-28T07:51:36;95750.44;;;8.93;94.81
11124;BME280;5616;42.692;23.312;2023-02-28T07:54:03;95746.91;;;9.02;94.29
11124;BME280;5616;42.692;23.312;2023-02-28T07:56:29;95744.38;;;9.10;94.19
11124;BME280;5616;42.692;23.312;2023-02-28T07:58:56;95741.19;;;9.16;93.26
11124;BME280;5616;42.692;23.312;2023-02-28T08:01:23;95742.81;;;9.25;92.77
11124;BME280;5616;42.692;23.312;2023-02-28T08:03:50;95739.66;;;9.39;91.01
11124;BME280;5616;42.692;23.312;2023-02-28T08:06:22;95739.66;;;9.39;92.19
11124;BME280;5616;42.692;23.312;2023-02-28T08:08:50;95740.66;;;9.62;91.99
11124;BME280;5616;42.692;23.312;2023-02-28T08:11:18;95738.41;;;9.75;91.26
11124;BME280;5616;42.692;23.312;2023-02-28T08:13:45;95739.75;;;9.88;91.24
11124;BME280;5616;42.692;23.312;2023-02-28T08:16:12;95746.69;;;9.95;89.93
11124;BME280;5616;42.692;23.312;2023-02-28T08:18:42;95746.81;;;9.85;89.13
11124;BME280;5616;42.692;23.312;2023-02-28T08:21:10;95742.47;;;9.86;89.99
11124;BME280;5616;42.692;23.312;2023-02-28T08:23:37;95750.84;;;9.88;90.15
11124;BME280;5616;42.692;23.312;2023-02-28T08:26:05;95746.19;;;10.00;90.13
11124;BME280;5616;42.692;23.312;2023-02-28T08:28:32;95745.88;;;10.11;89.56
11124;BME280;5616;42.692;23.312;2023-02-28T08:30:59;95746.50;;;10.05;89.17
11124;BME280;5616;42.692;23.312;2023-02-28T08:33:27;95752.03;;;10.18;89.28
11124;BME280;5616;42.692;23.312;2023-02-28T08:35:54;95747.19;;;10.31;88.77
11124;BME280;5616;42.692;23.312;2023-02-28T08:38:21;95746.22;;;10.40;88.08
11124;BME280;5616;42.692;23.312;2023-02-28T08:40:48;95750.56;;;10.48;87.82
11124;BME280;5616;42.692;23.312;2023-02-28T08:43:16;95747.13;;;10.63;88.18
11124;BME280;5616;42.692;23.312;2023-02-28T08:45:43;95745.19;;;10.73;86.78
11124;BME280;5616;42.692;23.312;2023-02-28T08:48:10;95736.28;;;10.84;87.19
11124;BME280;5616;42.692;23.312;2023-02-28T08:50:37;95741.22;;;10.93;87.18
11124;BME280;5616;42.692;23.312;2023-02-28T08:53:03;95741.38;;;11.00;87.50
11124;BME280;5616;42.692;23.312;2023-02-28T08:55:30;95745.50;;;11.17;87.66
11124;BME280;5616;42.692;23.312;2023-02-28T08:57:57;95745.25;;;11.04;86.82
11124;BME280;5616;42.692;23.312;2023-02-28T09:00:26;95745.34;;;11.19;87.68
11124;BME280;5616;42.692;23.312;2023-02-28T09:02:53;95751.19;;;11.13;87.88
11124;BME280;5616;42.692;23.312;2023-02-28T09:05:20;95747.59;;;11.22;87.53
11124;BME280;5616;42.692;23.312;2023-02-28T09:07:46;95749.50;;;11.28;88.34
11124;BME280;5616;42.692;23.312;2023-02-28T09:10:13;95745.66;;;11.24;86.70
11124;BME280;5616;42.692;23.312;2023-02-28T09:12:40;95748.06;;;11.25;87.00
11124;BME280;5616;42.692;23.312;2023-02-28T09:15:08;95742.16;;;11.09;88.73
11124;BME280;5616;42.692;23.312;2023-02-28T09:17:36;95748.31;;;11.07;88.83
11124;BME280;5616;42.692;23.312;2023-02-28T09:20:04;95741.28;;;10.77;88.45
11124;BME280;5616;42.692;23.312;2023-02-28T09:22:31;95747.28;;;10.62;88.61
11124;BME280;5616;42.692;23.312;2023-02-28T09:24:58;95742.81;;;10.39;89.50
11124;BME280;5616;42.692;23.312;2023-02-28T09:27:25;95739.41;;;10.47;89.69
11124;BME280;5616;42.692;23.312;2023-02-28T09:29:52;95745.38;;;10.56;88.47
11124;BME280;5616;42.692;23.312;2023-02-28T09:32:18;95737.47;;;10.57;88.00
11124;BME280;5616;42.692;23.312;2023-02-28T09:34:47;95743.91;;;10.61;87.51
11124;BME280;5616;42.692;23.312;2023-02-28T09:37:13;95744.25;;;10.58;87.68
11124;BME280;5616;42.692;23.312;2023-02-28T09:39:40;95739.53;;;10.62;88.92
11124;BME280;5616;42.692;23.312;2023-02-28T09:42:18;95735.50;;;10.59;88.89
11124;BME280;5616;42.692;23.312;2023-02-28T09:44:48;95738.56;;;10.63;89.61
11124;BME280;5616;42.692;23.312;2023-02-28T09:47:24;95740.00;;;10.73;89.67
11124;BME280;5616;42.692;23.312;2023-02-28T09:49:56;95735.97;;;10.79;88.94
11124;BME280;5616;42.692;23.312;2023-02-28T09:52:29;95733.66;;;10.92;88.36
11124;BME280;5616;42.692;23.312;2023-02-28T09:55:01;95731.06;;;10.92;88.23
11124;BME280;5616;42.692;23.312;2023-02-28T09:57:32;95729.13;;;10.94;88.88
11124;BME280;5616;42.692;23.312;2023-02-28T10:00:07;95729.38;;;11.15;88.40
11124;BME280;5616;42.692;23.312;2023-02-28T10:05:33;95714.47;;;11.56;85.56
11124;BME280;5616;42.692;23.312;2023-02-28T10:08:08;95716.81;;;11.65;85.97
11124;BME280;5616;42.692;23.312;2023-02-28T10:10:40;95714.09;;;11.59;85.28
11124;BME280;5616;42.692;23.312;2023-02-28T10:13:16;95713.75;;;11.70;84.62
11124;BME280;5616;42.692;23.312;2023-02-28T10:15:47;95701.31;;;11.65;84.68
11124;BME280;5616;42.692;23.312;2023-02-28T10:18:21;95685.06;;;11.49;86.13
11124;BME280;5616;42.692;23.312;2023-02-28T10:20:53;95689.44;;;11.79;86.45
11124;BME280;5616;42.692;23.312;2023-02-28T10:23:25;95700.06;;;11.84;86.44
11124;BME280;5616;42.692;23.312;2023-02-28T10:25:55;95695.47;;;11.94;85.01
11124;BME280;5616;42.692;23.312;2023-02-28T10:28:25;95696.13;;;12.11;84.44
11124;BME280;5616;42.692;23.312;2023-02-28T10:30:54;95698.69;;;12.34;80.94
11124;BME280;5616;42.692;23.312;2023-02-28T10:33:28;95690.13;;;12.48;82.29
11124;BME280;5616;42.692;23.312;2023-02-28T10:35:57;95687.72;;;12.61;80.30
11124;BME280;5616;42.692;23.312;2023-02-28T10:38:26;95687.28;;;12.57;79.18
11124;BME280;5616;42.692;23.312;2023-02-28T10:41:04;95678.97;;;12.47;81.30
11124;BME280;5616;42.692;23.312;2023-02-28T10:43:31;95673.00;;;12.61;79.05
11124;BME280;5616;42.692;23.312;2023-02-28T10:46:01;95670.94;;;12.71;77.14
11124;BME280;5616;42.692;23.312;2023-02-28T10:48:37;95660.66;;;12.78;79.07
11124;BME280;5616;42.692;23.312;2023-02-28T10:51:07;95661.81;;;12.90;77.76
11124;BME280;5616;42.692;23.312;2023-02-28T10:53:45;95652.59;;;13.17;77.83
11124;BME280;5616;42.692;23.312;2023-02-28T10:56:18;95650.50;;;13.27;76.94
11124;BME280;5616;42.692;23.312;2023-02-28T10:58:50;95633.41;;;13.32;76.01
11124;BME280;5616;42.692;23.312;2023-02-28T11:01:19;95643.69;;;13.40;75.99
11124;BME280;5616;42.692;23.312;2023-02-28T11:03:46;95648.22;;;13.38;74.70
11124;BME280;5616;42.692;23.312;2023-02-28T11:06:17;95640.16;;;13.48;74.71
11124;BME280;5616;42.692;23.312;2023-02-28T11:08:46;95632.66;;;13.60;76.19
11124;BME280;5616;42.692;23.312;2023-02-28T11:11:14;95633.09;;;13.63;73.95
11124;BME280;5616;42.692;23.312;2023-02-28T11:13:44;95626.75;;;13.44;74.75
11124;BME280;5616;42.692;23.312;2023-02-28T11:16:14;95629.16;;;13.10;76.16
11124;BME280;5616;42.692;23.312;2023-02-28T11:18:44;95632.25;;;13.35;75.04
11124;BME280;5616;42.692;23.312;2023-02-28T11:21:22;95623.03;;;13.32;74.95
11124;BME280;5616;42.692;23.312;2023-02-28T11:23:56;95626.53;;;13.25;74.57
11124;BME280;5616;42.692;23.312;2023-02-28T11:26:39;95623.63;;;13.13;75.29
11124;BME280;5616;42.692;23.312;2023-02-28T11:29:13;95632.03;;;12.86;75.93
11124;BME280;5616;42.692;23.312;2023-02-28T11:31:42;95627.38;;;12.96;76.38
11124;BME280;5616;42.692;23.312;2023-02-28T11:34:24;95624.44;;;13.14;76.13
11124;BME280;5616;42.692;23.312;2023-02-28T11:36:54;95613.53;;;13.39;75.82
11124;BME280;5616;42.692;23.312;2023-02-28T11:39:22;95608.03;;;13.49;74.95
11124;BME280;5616;42.692;23.312;2023-02-28T11:44:54;95612.91;;;13.59;72.86
11124;BME280;5616;42.692;23.312;2023-02-28T11:47:32;95615.88;;;13.34;71.54
11124;BME280;5616;42.692;23.312;2023-02-28T11:53:21;95607.50;;;13.18;73.52
11124;BME280;5616;42.692;23.312;2023-02-28T11:55:54;95609.50;;;13.37;74.86
11124;BME280;5616;42.692;23.312;2023-02-28T11:58:38;95609.28;;;13.17;75.48
11124;BME280;5616;42.692;23.312;2023-02-28T12:01:42;95608.06;;;13.13;74.98
11124;BME280;5616;42.692;23.312;2023-02-28T12:04:24;95612.41;;;13.27;73.16
11124;BME280;5616;42.692;23.312;2023-02-28T12:06:57;95604.69;;;13.34;72.68
11124;BME280;5616;42.692;23.312;2023-02-28T12:09:38;95604.91;;;13.18;72.99
11124;BME280;5616;42.692;23.312;2023-02-28T12:12:15;95604.75;;;13.19;74.25
11124;BME280;5616;42.692;23.312;2023-02-28T12:15:05;95603.50;;;13.15;74.74
11124;BME280;5616;42.692;23.312;2023-02-28T12:17:51;95615.53;;;13.23;73.50
11124;BME280;5616;42.692;23.312;2023-02-28T12:20:26;95599.63;;;13.26;73.17
11124;BME280;5616;42.692;23.312;2023-02-28T12:23:10;95598.69;;;13.33;72.78
11124;BME280;5616;42.692;23.312;2023-02-28T12:25:53;95598.81;;;13.25;73.75
11124;BME280;5616;42.692;23.312;2023-02-28T12:28:26;95596.78;;;13.21;73.93
11124;BME280;5616;42.692;23.312;2023-02-28T12:30:58;95597.75;;;13.41;72.07
11124;BME280;5616;42.692;23.312;2023-02-28T12:33:31;95601.66;;;13.30;71.51
11124;BME280;5616;42.692;23.312;2023-02-28T12:36:04;95595.84;;;13.28;73.01
11124;BME280;5616;42.692;23.312;2023-02-28T12:38:36;95596.09;;;13.33;72.16
11124;BME280;5616;42.692;23.312;2023-02-28T12:41:12;95591.84;;;13.26;72.99
11124;BME280;5616;42.692;23.312;2023-02-28T12:43:42;95580.78;;;13.17;73.68
11124;BME280;5616;42.692;23.312;2023-02-28T12:46:14;95590.06;;;13.26;74.69
11124;BME280;5616;42.692;23.312;2023-02-28T12:48:46;95602.28;;;13.32;72.05
11124;BME280;5616;42.692;23.312;2023-02-28T12:51:15;95584.41;;;13.23;72.12
11124;BME280;5616;42.692;23.312;2023-02-28T12:53:54;95591.53;;;13.14;73.02
11124;BME280;5616;42.692;23.312;2023-02-28T12:56:34;95590.72;;;12.99;73.76
11124;BME280;5616;42.692;23.312;2023-02-28T12:59:09;95594.16;;;12.85;75.01
11124;BME280;5616;42.692;23.312;2023-02-28T13:02:00;95598.81;;;12.75;76.53
11124;BME280;5616;42.692;23.312;2023-02-28T13:04:43;95585.94;;;12.81;73.83
11124;BME280;5616;42.692;23.312;2023-02-28T13:07:42;95597.84;;;12.76;74.29
11124;BME280;5616;42.692;23.312;2023-02-28T13:10:17;95589.75;;;12.85;73.75
11124;BME280;5616;42.692;23.312;2023-02-28T13:12:51;95589.00;;;12.85;74.21
11124;BME280;5616;42.692;23.312;2023-02-28T13:15:21;95590.22;;;12.89;73.63
11124;BME280;5616;42.692;23.312;2023-02-28T13:17:51;95591.63;;;13.06;73.68
11124;BME280;5616;42.692;23.312;2023-02-28T13:20:20;95589.50;;;12.95;73.38
11124;BME280;5616;42.692;23.312;2023-02-28T13:22:49;95584.88;;;12.76;73.32
11124;BME280;5616;42.692;23.312;2023-02-28T13:31:20;95575.38;;;12.98;71.92
11124;BME280;5616;42.692;23.312;2023-02-28T13:34:13;95583.41;;;12.88;75.04
11124;BME280;5616;42.692;23.312;2023-02-28T13:36:41;95580.81;;;12.88;73.71
11124;BME280;5616;42.692;23.312;2023-02-28T13:42:32;95583.06;;;12.91;73.08
11124;BME280;5616;42.692;23.312;2023-02-28T13:45:25;95570.66;;;12.86;73.40
11124;BME280;5616;42.692;23.312;2023-02-28T13:47:55;95571.25;;;13.03;73.70